Murfreesboro, Tennessee
Current Conditions -  °F | °C
As of 3:53 PM on Thursday 23 Oct 2014 (Local Time) from KBNA Reporting Station
Broken Clouds Broken Clouds  
Wind Chill: 64°   Ceiling: 25000
Heat Index: 64°   Visibility: 10mi
Dew Point: 41°   Wind: 5mph
Humidity: 43%   Direction: 360°N
Pressure: 30.11"   Gusts: NA
Location:  35.84°N, 86.39°W
Report Text: KBNA 232053Z 36004KT 10SM BKN250 18/05 A3011 RMK AO2 SLP195 T01780050 56020
Loading
Personal Weather Stations






























Interactive Weather Map
Tropical Storm Tracking
New forecast layout! Learn more

10-Day Weather Forecast

Advertisements
Track Severe Weather on mobile